Time;durP1;ratioP1;P1;durP2;ratioP2;P2;SDS_P1;SDS_P2;PMS_P1;PMS_P2;Temp;Humidity;BMP_temperature;BMP_pressure;BME280_temperature;BME280_humidity;BME280_pressure;Samples;Min_cycle;Max_cycle;Signal;HPM_P1;HPM_P2
2023/07/21 00:02:28;;;;;;;2.97;2.77;;;25.50;60.60;;;;;;5035126;28;20970;-67
2023/07/21 00:04:56;;;;;;;3.37;3.17;;;25.50;60.70;;;;;;5035208;28;20426;-67
2023/07/21 00:07:27;;;;;;;3.20;3.00;;;25.40;60.60;;;;;;5052997;28;20920;-67
2023/07/21 00:09:59;;;;;;;3.83;3.53;;;25.40;60.60;;;;;;5052717;28;20434;-67
2023/07/21 00:12:25;;;;;;;3.30;3.10;;;25.40;60.80;;;;;;5035070;28;20847;-67
2023/07/21 00:14:53;;;;;;;3.30;3.00;;;25.40;60.60;;;;;;5052701;28;20434;-67
2023/07/21 00:17:20;;;;;;;3.33;3.00;;;25.40;60.70;;;;;;5018620;28;20817;-67
2023/07/21 00:19:46;;;;;;;3.10;2.90;;;25.40;60.70;;;;;;5034738;28;20450;-67
2023/07/21 00:22:12;;;;;;;3.80;3.53;;;25.30;61.50;;;;;;5018315;28;20466;-67
2023/07/21 00:24:38;;;;;;;3.30;3.10;;;25.30;60.90;;;;;;5052460;28;20472;-67
2023/07/21 00:27:05;;;;;;;3.40;3.10;;;25.30;60.80;;;;;;5018098;28;20411;-67
2023/07/21 00:29:32;;;;;;;3.43;3.13;;;25.30;60.90;;;;;;5051964;28;20491;-67
2023/07/21 00:31:58;;;;;;;3.60;3.13;;;25.30;61.10;;;;;;5034389;28;20478;-67
2023/07/21 00:34:24;;;;;;;3.63;3.33;;;25.30;61.00;;;;;;5034115;28;20406;-67
2023/07/21 00:36:57;;;;;;;3.93;3.63;;;25.20;61.10;;;;;;5052163;28;20438;-67
2023/07/21 00:39:23;;;;;;;3.30;3.10;;;25.20;61.10;;;;;;5034301;28;20488;-67
2023/07/21 00:41:49;;;;;;;3.03;2.83;;;25.20;61.10;;;;;;5034331;28;20414;-67
2023/07/21 00:44:19;;;;;;;3.60;3.30;;;25.20;61.10;;;;;;5052061;28;20414;-67
2023/07/21 00:46:46;;;;;;;3.43;3.23;;;25.20;61.20;;;;;;5034163;28;20809;-67
2023/07/21 00:49:15;;;;;;;3.50;3.20;;;25.20;61.20;;;;;;5033366;28;20451;-67
2023/07/21 00:51:41;;;;;;;3.60;3.30;;;25.20;61.30;;;;;;5017526;28;20434;-67
2023/07/21 00:54:10;;;;;;;3.40;3.10;;;25.10;61.20;;;;;;5033810;28;20403;-67
2023/07/21 00:56:36;;;;;;;3.23;3.03;;;25.10;61.10;;;;;;5051948;28;20409;-67
2023/07/21 00:59:06;;;;;;;3.70;3.40;;;25.10;61.20;;;;;;5033978;28;20980;-67
2023/07/21 01:01:32;;;;;;;4.20;3.10;;;25.10;61.30;;;;;;5051901;28;20918;-67
2023/07/21 01:03:58;;;;;;;3.60;3.30;;;25.10;61.50;;;;;;5033825;28;20411;-67
2023/07/21 01:06:27;;;;;;;4.50;2.97;;;25.10;61.40;;;;;;5017634;28;20629;-67
2023/07/21 01:08:56;;;;;;;3.10;2.90;;;25.10;61.40;;;;;;5034418;28;20481;-67
2023/07/21 01:11:25;;;;;;;2.93;2.73;;;25.00;61.40;;;;;;5051861;28;20539;-67
2023/07/21 01:13:54;;;;;;;3.40;3.10;;;25.00;61.40;;;;;;5034384;28;20836;-68
2023/07/21 01:16:25;;;;;;;3.60;3.30;;;25.00;61.50;;;;;;5017779;28;20410;-67
2023/07/21 01:18:58;;;;;;;3.80;3.50;;;25.00;61.50;;;;;;5017524;28;20861;-67
2023/07/21 01:21:49;;;;;;;3.40;3.20;;;25.00;61.60;;;;;;5017608;28;20430;-67
2023/07/21 01:24:53;;;;;;;2.73;2.63;;;25.00;61.50;;;;;;5017602;28;20450;-67
2023/07/21 01:27:26;;;;;;;3.50;3.20;;;24.90;61.60;;;;;;5040682;28;20430;-67
2023/07/21 01:29:53;;;;;;;3.27;3.03;;;24.90;61.70;;;;;;5033944;28;20967;-67
2023/07/21 01:32:25;;;;;;;3.87;3.47;;;24.90;61.90;;;;;;5034023;28;20548;-67
2023/07/21 01:34:55;;;;;;;3.40;3.10;;;24.90;61.90;;;;;;5051668;28;20419;-71
2023/07/21 01:37:24;;;;;;;3.10;2.90;;;24.90;61.90;;;;;;5050745;28;20933;-67
2023/07/21 01:39:52;;;;;;;3.73;3.43;;;24.90;61.70;;;;;;5033615;28;20959;-67
2023/07/21 01:42:20;;;;;;;3.57;3.27;;;24.90;62.60;;;;;;5017562;28;20422;-67
2023/07/21 01:44:46;;;;;;;3.23;2.93;;;24.80;61.80;;;;;;5017271;28;21002;-67
2023/07/21 01:47:12;;;;;;;3.60;3.30;;;24.80;61.90;;;;;;5033498;28;20921;-67
2023/07/21 01:49:40;;;;;;;3.43;3.20;;;24.80;61.70;;;;;;5033635;28;20526;-67
2023/07/21 01:52:07;;;;;;;4.23;3.93;;;24.80;61.80;;;;;;5016861;28;20464;-67
2023/07/21 01:54:45;;;;;;;3.10;2.90;;;24.80;61.90;;;;;;5033368;28;20426;-68
2023/07/21 01:57:17;;;;;;;5.00;3.30;;;24.80;61.80;;;;;;5051250;28;20776;-67
2023/07/21 01:59:48;;;;;;;4.07;3.30;;;24.70;61.80;;;;;;5016857;28;20846;-68
2023/07/21 02:02:17;;;;;;;3.70;3.40;;;24.70;61.70;;;;;;5033034;28;20937;-67
2023/07/21 02:04:53;;;;;;;3.27;3.00;;;24.70;61.70;;;;;;5033054;28;20433;-67
2023/07/21 02:07:20;;;;;;;4.23;3.27;;;24.70;61.70;;;;;;5002914;28;20447;-67
2023/07/21 02:09:50;;;;;;;3.70;3.40;;;24.70;61.70;;;;;;5037179;28;20529;-67
2023/07/21 02:12:17;;;;;;;3.80;3.50;;;24.70;61.90;;;;;;5037211;28;20473;-67
2023/07/21 02:14:59;;;;;;;3.57;3.37;;;24.70;61.90;;;;;;5055122;28;20441;-67
2023/07/21 02:17:27;;;;;;;3.50;3.20;;;24.60;61.70;;;;;;5037060;28;20914;-67
2023/07/21 02:19:55;;;;;;;3.50;3.20;;;24.60;61.80;;;;;;5004993;28;20422;-67
2023/07/21 02:22:23;;;;;;;3.40;3.03;;;24.60;61.80;;;;;;5020418;28;20437;-67
2023/07/21 02:24:52;;;;;;;3.60;3.40;;;24.60;61.80;;;;;;5020394;28;20481;-67
2023/07/21 02:27:18;;;;;;;3.30;3.00;;;24.60;61.90;;;;;;5036703;28;20442;-67
2023/07/21 02:29:50;;;;;;;3.80;3.60;;;24.50;61.70;;;;;;5020912;28;20458;-67
2023/07/21 02:32:18;;;;;;;3.47;3.17;;;24.60;61.90;;;;;;5054499;28;20442;-67
2023/07/21 02:34:45;;;;;;;5.37;3.73;;;24.50;61.90;;;;;;5036781;28;20519;-67
2023/07/21 02:37:10;;;;;;;3.43;3.13;;;24.50;62.70;;;;;;5020427;28;20841;-67
2023/07/21 02:39:42;;;;;;;3.57;3.37;;;24.50;61.90;;;;;;5020663;28;20513;-67
2023/07/21 02:42:13;;;;;;;3.40;3.20;;;24.50;62.10;;;;;;5020416;28;20756;-67
2023/07/21 02:44:41;;;;;;;3.90;3.60;;;24.50;61.90;;;;;;5036964;28;20482;-67
2023/07/21 02:47:07;;;;;;;3.13;2.93;;;24.50;62.00;;;;;;5036667;28;20426;-67
2023/07/21 02:49:37;;;;;;;3.60;3.30;;;24.50;62.30;;;;;;5020379;28;20807;-67
2023/07/21 02:52:04;;;;;;;3.37;3.17;;;24.40;61.90;;;;;;5019645;28;20470;-67
2023/07/21 02:54:33;;;;;;;3.43;3.17;;;24.40;61.90;;;;;;5036394;28;20484;-67
2023/07/21 02:57:06;;;;;;;3.77;3.57;;;24.40;62.00;;;;;;5004766;28;20410;-67
2023/07/21 02:59:34;;;;;;;3.17;2.97;;;24.40;61.80;;;;;;5003464;28;20454;-67
2023/07/21 03:02:00;;;;;;;3.70;3.40;;;24.40;62.00;;;;;;5020009;28;20418;-68
2023/07/21 03:04:45;;;;;;;3.50;3.30;;;24.40;62.00;;;;;;5020001;28;20422;-68
2023/07/21 03:07:14;;;;;;;3.37;3.17;;;24.40;62.00;;;;;;5102427;22;20503;-71
2023/07/21 03:09:45;;;;;;;3.60;3.33;;;24.30;62.00;;;;;;5005868;28;20440;-71
2023/07/21 03:12:25;;;;;;;3.87;3.60;;;24.30;62.00;;;;;;4995501;28;20470;-71
2023/07/21 03:14:54;;;;;;;3.40;3.20;;;24.30;61.90;;;;;;5024572;28;20442;-71
2023/07/21 03:17:23;;;;;;;3.63;3.43;;;24.30;62.00;;;;;;4960250;28;20542;-71
2023/07/21 03:19:54;;;;;;;3.43;3.23;;;24.30;62.00;;;;;;4982613;28;20577;-71
2023/07/21 03:22:20;;;;;;;3.93;3.50;;;24.20;62.10;;;;;;4994958;28;20431;-71
2023/07/21 03:24:47;;;;;;;3.80;3.50;;;24.20;62.10;;;;;;4995120;28;20420;-71
2023/07/21 03:27:16;;;;;;;4.90;3.90;;;24.20;62.00;;;;;;4995531;28;20416;-72
2023/07/21 03:29:46;;;;;;;3.60;3.40;;;24.20;62.00;;;;;;4979472;28;20453;-71
2023/07/21 03:32:12;;;;;;;4.93;3.50;;;24.20;62.20;;;;;;4970478;28;20547;-71
2023/07/21 03:34:41;;;;;;;4.20;3.73;;;24.20;62.10;;;;;;4975454;28;20509;-71
2023/07/21 03:37:09;;;;;;;3.47;3.17;;;24.20;61.90;;;;;;4975514;28;20412;-71
2023/07/21 03:39:35;;;;;;;4.73;3.70;;;24.20;62.00;;;;;;4992740;28;20437;-71
2023/07/21 03:42:01;;;;;;;4.00;3.37;;;24.20;62.20;;;;;;4991455;28;20209;-71
2023/07/21 03:44:27;;;;;;;4.20;3.90;;;24.10;62.10;;;;;;5009903;28;20994;-71
2023/07/21 03:46:56;;;;;;;4.47;3.10;;;24.10;62.00;;;;;;5010002;28;20483;-71
2023/07/21 03:49:31;;;;;;;3.30;3.07;;;24.10;62.00;;;;;;4992210;28;20462;-71
2023/07/21 03:52:04;;;;;;;4.80;3.53;;;24.10;62.00;;;;;;4992949;28;20444;-71
2023/07/21 03:54:30;;;;;;;3.20;3.00;;;24.10;62.00;;;;;;5009602;28;20511;-71
2023/07/21 03:56:57;;;;;;;3.80;3.07;;;24.10;62.00;;;;;;4977100;28;20441;-71
2023/07/21 03:59:26;;;;;;;3.67;3.47;;;24.10;62.00;;;;;;4993063;28;20532;-71
2023/07/21 04:01:55;;;;;;;4.47;3.33;;;24.00;61.90;;;;;;4989909;28;20437;-71
2023/07/21 04:04:21;;;;;;;4.37;3.97;;;24.00;61.90;;;;;;4978392;28;21010;-71
2023/07/21 04:06:51;;;;;;;4.13;3.73;;;24.00;62.10;;;;;;4989869;28;20503;-71
2023/07/21 04:09:19;;;;;;;3.20;2.90;;;23.90;61.90;;;;;;4991269;28;20481;-71
2023/07/21 04:11:45;;;;;;;3.53;3.23;;;24.00;62.00;;;;;;4990970;28;20459;-71
2023/07/21 04:14:19;;;;;;;3.57;3.27;;;24.00;62.00;;;;;;4974050;28;20492;-72
2023/07/21 04:16:45;;;;;;;3.30;3.10;;;24.00;62.00;;;;;;4999088;28;20540;-71
2023/07/21 04:19:11;;;;;;;5.10;3.27;;;23.90;61.90;;;;;;5008988;28;20494;-70
2023/07/21 04:21:37;;;;;;;3.47;3.20;;;23.90;62.00;;;;;;4976964;28;20519;-71
2023/07/21 04:24:03;;;;;;;4.30;3.17;;;23.90;61.90;;;;;;5009286;28;20504;-71
2023/07/21 04:26:30;;;;;;;3.37;3.17;;;23.80;61.90;;;;;;5010466;28;20450;-71
2023/07/21 04:28:57;;;;;;;3.53;3.33;;;23.90;62.10;;;;;;4992292;28;20852;-72
2023/07/21 04:31:28;;;;;;;3.57;3.30;;;23.80;62.00;;;;;;5027742;28;20486;-71
2023/07/21 04:34:02;;;;;;;3.50;3.20;;;23.80;62.00;;;;;;5045459;28;21101;-71
2023/07/21 04:36:28;;;;;;;3.80;3.60;;;23.80;62.00;;;;;;5012511;28;20565;-71
2023/07/21 04:38:58;;;;;;;3.73;3.10;;;23.80;62.10;;;;;;5045086;28;21157;-71
2023/07/21 04:41:25;;;;;;;4.70;3.37;;;23.80;62.10;;;;;;5028580;28;20480;-71
2023/07/21 04:43:53;;;;;;;3.47;3.17;;;23.80;62.20;;;;;;5012253;28;20420;-71
2023/07/21 04:46:21;;;;;;;3.60;3.40;;;23.80;62.30;;;;;;5011983;28;20438;-70
2023/07/21 04:48:49;;;;;;;3.17;2.97;;;23.80;62.30;;;;;;5044983;28;20949;-71
2023/07/21 04:51:24;;;;;;;3.50;3.27;;;23.70;62.10;;;;;;5027622;28;20818;-73
2023/07/21 04:53:50;;;;;;;4.93;3.70;;;23.70;62.10;;;;;;5014702;28;20420;-71
2023/07/21 04:56:16;;;;;;;4.00;3.60;;;23.70;62.10;;;;;;4992924;28;20396;-72
2023/07/21 04:58:47;;;;;;;3.50;3.20;;;23.70;62.20;;;;;;5008855;28;20201;-71
2023/07/21 05:01:16;;;;;;;3.07;2.87;;;23.70;62.40;;;;;;4975724;28;20436;-71
2023/07/21 05:03:42;;;;;;;3.83;3.50;;;23.70;62.30;;;;;;4993732;28;20461;-70
2023/07/21 05:06:09;;;;;;;3.70;3.40;;;23.70;62.40;;;;;;5008722;28;20424;-70
2023/07/21 05:08:36;;;;;;;4.03;3.40;;;23.70;62.30;;;;;;5008486;28;21233;-71
2023/07/21 05:11:04;;;;;;;3.97;3.70;;;23.70;62.40;;;;;;4992385;28;20448;-70
2023/07/21 05:13:30;;;;;;;3.53;3.23;;;23.60;62.30;;;;;;4992349;28;20893;-70
2023/07/21 05:16:19;;;;;;;3.57;3.27;;;23.60;62.30;;;;;;4991824;28;20456;-72
2023/07/21 05:18:57;;;;;;;3.60;3.30;;;23.60;62.40;;;;;;5008692;28;20452;-70
2023/07/21 05:21:40;;;;;;;4.70;3.73;;;23.60;62.40;;;;;;5010130;28;20462;-70
2023/07/21 05:24:26;;;;;;;3.40;3.00;;;23.60;62.50;;;;;;4978060;28;20574;-75
2023/07/21 05:26:52;;;;;;;5.23;3.37;;;23.60;62.60;;;;;;4992296;28;20485;-75
2023/07/21 05:29:35;;;;;;;3.70;3.50;;;23.60;62.60;;;;;;5000807;28;20925;-76
2023/07/21 05:32:05;;;;;;;3.40;3.20;;;23.60;62.70;;;;;;5024522;28;21002;-72
2023/07/21 05:34:34;;;;;;;3.40;3.10;;;23.60;62.80;;;;;;4992120;28;20444;-73
2023/07/21 05:37:06;;;;;;;3.67;3.10;;;23.60;62.80;;;;;;4989336;28;20971;-72
2023/07/21 05:39:32;;;;;;;3.60;3.40;;;23.50;62.60;;;;;;4990074;28;20464;-72
2023/07/21 05:41:59;;;;;;;3.63;3.43;;;23.50;62.70;;;;;;4990657;28;20949;-72
2023/07/21 05:44:30;;;;;;;4.43;4.13;;;23.50;62.70;;;;;;5007681;28;20420;-72
2023/07/21 05:46:56;;;;;;;5.30;3.53;;;23.50;62.80;;;;;;5008229;28;20439;-72
2023/07/21 05:49:23;;;;;;;3.70;3.40;;;23.50;62.80;;;;;;4990733;28;20453;-72
2023/07/21 05:51:52;;;;;;;4.10;3.67;;;23.50;62.90;;;;;;5007664;28;20471;-72
2023/07/21 05:54:30;;;;;;;5.83;4.23;;;23.50;63.10;;;;;;5007125;28;20439;-72
2023/07/21 05:56:58;;;;;;;6.27;3.73;;;23.50;63.30;;;;;;4988532;28;20436;-73
2023/07/21 05:59:32;;;;;;;3.60;3.40;;;23.40;63.20;;;;;;4977785;28;20490;-72
2023/07/21 06:02:01;;;;;;;5.77;3.40;;;23.40;63.10;;;;;;5010144;28;20419;-75
2023/07/21 06:04:33;;;;;;;3.30;3.10;;;23.40;63.10;;;;;;5010323;28;20173;-72
2023/07/21 06:07:29;;;;;;;5.63;3.83;;;23.40;63.20;;;;;;4988539;28;21011;-72
2023/07/21 06:10:18;;;;;;;4.63;4.30;;;23.40;63.30;;;;;;5000304;28;21003;-71
2023/07/21 06:12:59;;;;;;;5.30;3.10;;;23.40;63.30;;;;;;5006272;28;20737;-72
2023/07/21 06:15:45;;;;;;;4.23;3.90;;;23.40;63.40;;;;;;4994796;28;20432;-73
2023/07/21 06:18:22;;;;;;;3.93;3.70;;;23.40;63.30;;;;;;4991668;28;21012;-71
2023/07/21 06:20:52;;;;;;;3.50;3.30;;;23.40;63.50;;;;;;4988736;28;21157;-72
2023/07/21 06:23:20;;;;;;;4.07;3.77;;;23.40;63.40;;;;;;5006199;28;20452;-73
2023/07/21 06:25:47;;;;;;;5.83;3.80;;;23.40;63.30;;;;;;4974973;28;20950;-72
2023/07/21 06:28:18;;;;;;;3.80;3.50;;;23.30;63.30;;;;;;4991224;28;20444;-72
2023/07/21 06:30:44;;;;;;;3.60;3.30;;;23.30;63.30;;;;;;5007159;28;20467;-72
2023/07/21 06:33:17;;;;;;;5.30;3.27;;;23.30;63.30;;;;;;4978646;28;20425;-72
2023/07/21 06:35:54;;;;;;;3.30;3.10;;;23.30;63.40;;;;;;5000624;28;20490;-73
2023/07/21 06:38:28;;;;;;;5.07;3.50;;;23.30;63.40;;;;;;5007011;28;20595;-72
2023/07/21 06:41:17;;;;;;;3.53;3.33;;;23.30;63.50;;;;;;4971310;28;20863;-72
2023/07/21 06:44:03;;;;;;;5.20;3.70;;;23.30;64.40;;;;;;4987711;28;20421;-72
2023/07/21 06:46:38;;;;;;;3.20;3.00;;;23.30;63.60;;;;;;5002202;28;20896;-73
2023/07/21 06:49:25;;;;;;;3.83;3.53;;;23.30;63.70;;;;;;5001925;28;20460;-72
2023/07/21 06:51:58;;;;;;;4.00;3.50;;;23.30;64.20;;;;;;5005279;28;20522;-72
2023/07/21 06:54:24;;;;;;;3.47;3.20;;;23.30;63.80;;;;;;4994091;28;20845;-72
2023/07/21 06:56:50;;;;;;;4.23;3.83;;;23.30;64.10;;;;;;4994543;28;20657;-72
2023/07/21 06:59:16;;;;;;;3.47;3.27;;;23.30;63.90;;;;;;5010664;28;20535;-72
2023/07/21 07:01:47;;;;;;;3.93;3.67;;;23.30;63.80;;;;;;5010938;28;20518;-71
2023/07/21 07:04:16;;;;;;;3.70;3.40;;;23.30;63.90;;;;;;5010516;28;20454;-71
2023/07/21 07:06:42;;;;;;;4.30;4.00;;;23.30;63.90;;;;;;4977822;28;20440;-71
2023/07/21 07:09:14;;;;;;;3.47;3.17;;;23.20;63.80;;;;;;4994950;28;20466;-71
2023/07/21 07:11:41;;;;;;;3.80;3.50;;;23.30;64.00;;;;;;5010963;28;20874;-72
2023/07/21 07:14:07;;;;;;;4.33;4.03;;;23.30;63.90;;;;;;5014912;28;20449;-72
2023/07/21 07:16:35;;;;;;;4.33;4.03;;;23.30;64.00;;;;;;5014256;28;20845;-72
2023/07/21 07:19:04;;;;;;;3.93;3.53;;;23.30;63.90;;;;;;5029123;28;20197;-72
2023/07/21 07:21:33;;;;;;;4.33;4.03;;;23.20;63.80;;;;;;4994402;28;20527;-72
2023/07/21 07:24:01;;;;;;;4.60;4.20;;;23.30;63.80;;;;;;4994546;28;20617;-72
2023/07/21 07:26:27;;;;;;;3.60;3.40;;;23.30;63.70;;;;;;4978153;28;20807;-73
2023/07/21 07:28:54;;;;;;;3.87;3.60;;;23.30;63.70;;;;;;5010607;28;21109;-73
2023/07/21 07:31:22;;;;;;;4.23;3.93;;;23.30;63.70;;;;;;5017204;28;20467;-72
2023/07/21 07:33:52;;;;;;;4.60;4.20;;;23.30;63.70;;;;;;4978381;28;20510;-73
2023/07/21 07:36:20;;;;;;;4.00;3.70;;;23.20;63.50;;;;;;5009853;28;20416;-73
2023/07/21 07:38:46;;;;;;;4.30;3.90;;;23.30;63.70;;;;;;5008516;28;20459;-73
2023/07/21 07:41:12;;;;;;;4.37;4.00;;;23.30;63.60;;;;;;5008477;28;20460;-72
2023/07/21 07:43:43;;;;;;;4.57;4.17;;;23.30;63.40;;;;;;4992647;28;20524;-72
2023/07/21 07:46:11;;;;;;;3.90;3.60;;;23.30;63.50;;;;;;5011657;28;20809;-72
2023/07/21 07:48:37;;;;;;;4.07;3.73;;;23.30;63.40;;;;;;4976873;28;20506;-73
2023/07/21 07:51:06;;;;;;;4.03;3.70;;;23.30;63.40;;;;;;4994061;28;20464;-74
2023/07/21 07:53:35;;;;;;;4.97;4.57;;;23.30;63.40;;;;;;5009498;28;20424;-73
2023/07/21 07:56:06;;;;;;;4.40;4.00;;;23.30;63.40;;;;;;5009969;28;20405;-73
2023/07/21 07:58:34;;;;;;;4.03;3.73;;;23.30;63.40;;;;;;4991495;28;20456;-73
2023/07/21 08:01:00;;;;;;;3.33;3.13;;;23.30;63.40;;;;;;4993410;28;20444;-73
2023/07/21 08:03:26;;;;;;;3.80;3.60;;;23.30;63.30;;;;;;4977164;28;20996;-74
2023/07/21 08:05:52;;;;;;;3.70;3.40;;;23.30;63.30;;;;;;4999542;28;20476;-76
2023/07/21 08:08:22;;;;;;;3.83;3.40;;;23.30;63.30;;;;;;5008982;28;20452;-74
2023/07/21 08:10:48;;;;;;;3.70;3.40;;;23.30;63.20;;;;;;5008571;28;20464;-73
2023/07/21 08:13:14;;;;;;;4.40;4.00;;;23.30;63.20;;;;;;5009150;28;20417;-76
2023/07/21 08:15:41;;;;;;;4.63;3.70;;;23.30;63.10;;;;;;5014994;28;20782;-76
2023/07/21 08:18:10;;;;;;;3.60;3.30;;;23.30;63.20;;;;;;5026672;28;20628;-76
2023/07/21 08:20:42;;;;;;;3.57;3.27;;;23.40;63.20;;;;;;5008681;28;20541;-74
2023/07/21 08:23:08;;;;;;;3.97;3.77;;;23.40;63.10;;;;;;5007245;28;20848;-76
2023/07/21 08:25:34;;;;;;;3.97;3.67;;;23.40;63.10;;;;;;4991693;28;20450;-72
2023/07/21 08:28:03;;;;;;;4.20;3.90;;;23.40;63.20;;;;;;4975923;28;20471;-73
2023/07/21 08:30:32;;;;;;;3.37;3.17;;;23.40;63.20;;;;;;4997942;28;20432;-72
2023/07/21 08:32:58;;;;;;;3.63;3.40;;;23.40;63.20;;;;;;5007519;28;20545;-73
2023/07/21 08:35:25;;;;;;;3.70;3.43;;;23.40;63.20;;;;;;5009216;28;20412;-72
2023/07/21 08:37:53;;;;;;;3.73;3.43;;;23.40;63.10;;;;;;5008077;28;20970;-72
2023/07/21 08:40:22;;;;;;;3.70;3.50;;;23.40;63.10;;;;;;4991735;28;20850;-73
2023/07/21 08:42:51;;;;;;;3.40;3.20;;;23.40;63.00;;;;;;5007419;28;20779;-73
2023/07/21 08:45:20;;;;;;;4.23;4.00;;;23.40;63.00;;;;;;5008385;28;20432;-72
2023/07/21 08:47:48;;;;;;;3.80;3.50;;;23.40;62.80;;;;;;5009181;28;20870;-73
2023/07/21 08:50:19;;;;;;;3.63;3.33;;;23.40;62.90;;;;;;5007724;28;20950;-72
2023/07/21 08:52:47;;;;;;;3.63;3.33;;;23.40;63.00;;;;;;4991100;28;20464;-72
2023/07/21 08:55:13;;;;;;;3.90;3.70;;;23.40;62.90;;;;;;5004639;28;20560;-73
2023/07/21 08:57:43;;;;;;;3.57;3.37;;;23.40;62.80;;;;;;4995627;28;20539;-72
2023/07/21 09:00:10;;;;;;;4.57;4.27;;;23.40;62.80;;;;;;5008408;28;20468;-72
2023/07/21 09:02:40;;;;;;;3.97;3.67;;;23.50;62.80;;;;;;5006988;28;20495;-72
2023/07/21 09:05:09;;;;;;;4.87;3.60;;;23.50;62.80;;;;;;4991426;28;20475;-72
2023/07/21 09:07:44;;;;;;;4.20;3.90;;;23.50;62.80;;;;;;5009121;28;20575;-72
2023/07/21 09:10:10;;;;;;;3.70;3.20;;;23.50;62.60;;;;;;5007857;28;20460;-72
2023/07/21 09:12:41;;;;;;;3.37;3.17;;;23.50;62.60;;;;;;4998519;28;20526;-72
2023/07/21 09:15:09;;;;;;;3.40;3.20;;;23.50;62.50;;;;;;4990092;28;20939;-72
2023/07/21 09:17:43;;;;;;;3.53;3.33;;;23.60;62.60;;;;;;4992055;28;20404;-72
2023/07/21 09:20:12;;;;;;;3.50;3.30;;;23.50;62.50;;;;;;4991897;28;20467;-73
2023/07/21 09:22:39;;;;;;;3.50;3.30;;;23.60;62.40;;;;;;5006648;28;20527;-72
2023/07/21 09:25:08;;;;;;;3.63;3.43;;;23.60;62.40;;;;;;5008052;28;20428;-72
2023/07/21 09:27:39;;;;;;;4.40;2.90;;;23.60;62.30;;;;;;5008526;28;21057;-72
2023/07/21 09:30:06;;;;;;;3.97;3.70;;;23.60;62.30;;;;;;5006998;28;20444;-72
2023/07/21 09:32:40;;;;;;;3.57;3.37;;;23.60;62.20;;;;;;5006306;28;20448;-72
2023/07/21 09:35:08;;;;;;;4.00;3.80;;;23.60;62.10;;;;;;5006788;28;20827;-72
2023/07/21 09:37:35;;;;;;;4.37;4.03;;;23.70;62.10;;;;;;4990165;28;20828;-72
2023/07/21 09:40:09;;;;;;;4.03;3.73;;;23.60;61.90;;;;;;4991079;28;20542;-72
2023/07/21 09:42:36;;;;;;;3.70;3.50;;;23.70;62.00;;;;;;4990620;28;20489;-72
2023/07/21 09:45:04;;;;;;;4.10;3.80;;;23.70;62.00;;;;;;4991908;28;20635;-73
2023/07/21 09:47:32;;;;;;;4.03;3.73;;;23.70;62.00;;;;;;5008314;28;20523;-72
2023/07/21 09:49:59;;;;;;;4.47;4.07;;;23.70;61.90;;;;;;4991366;28;20460;-72
2023/07/21 09:52:28;;;;;;;3.70;3.40;;;23.70;61.90;;;;;;5007234;28;20975;-73
2023/07/21 09:55:13;;;;;;;3.97;3.67;;;23.70;61.80;;;;;;4991586;28;20412;-72
2023/07/21 09:57:47;;;;;;;3.40;3.20;;;23.80;61.80;;;;;;5007322;28;20494;-72
2023/07/21 10:00:16;;;;;;;3.80;3.50;;;23.80;61.70;;;;;;5007225;28;20828;-72
2023/07/21 10:02:52;;;;;;;4.20;3.90;;;23.80;61.60;;;;;;5007512;28;20470;-73
2023/07/21 10:05:20;;;;;;;4.83;4.53;;;23.80;61.40;;;;;;5007328;28;20420;-71
2023/07/21 10:07:49;;;;;;;3.87;3.63;;;23.80;61.50;;;;;;4990872;28;20494;-71
2023/07/21 10:10:16;;;;;;;3.80;3.60;;;23.80;61.50;;;;;;5007564;28;20432;-72
2023/07/21 10:12:49;;;;;;;3.93;3.63;;;23.80;61.20;;;;;;5007158;28;20460;-76
2023/07/21 10:15:21;;;;;;;4.70;4.40;;;23.90;61.20;;;;;;5009135;28;20418;-72
2023/07/21 10:17:57;;;;;;;4.10;3.80;;;23.90;60.90;;;;;;4991565;28;20439;-73
2023/07/21 10:20:56;;;;;;;3.30;3.10;;;23.90;60.70;;;;;;5007565;28;20475;-73
2023/07/21 10:23:26;;;;;;;4.30;3.93;;;23.90;60.60;;;;;;4970117;28;20712;-72
2023/07/21 10:25:58;;;;;;;3.67;3.47;;;23.90;60.40;;;;;;4991389;28;20690;-72
2023/07/21 10:28:43;;;;;;;3.63;3.43;;;24.00;60.50;;;;;;5009772;28;20985;-72
2023/07/21 10:31:23;;;;;;;3.43;3.23;;;24.00;60.50;;;;;;4975436;28;20542;-73
2023/07/21 10:34:08;;;;;;;3.43;3.23;;;24.00;60.50;;;;;;5010977;28;20428;-72
2023/07/21 10:36:53;;;;;;;3.80;3.60;;;24.00;60.40;;;;;;5010990;28;20998;-72
2023/07/21 10:39:28;;;;;;;3.40;3.20;;;24.10;60.50;;;;;;5012203;28;20456;-72
2023/07/21 10:41:59;;;;;;;3.30;3.00;;;24.10;60.50;;;;;;5012500;28;20428;-72
2023/07/21 10:44:39;;;;;;;3.70;3.40;;;24.10;60.30;;;;;;5010668;28;20420;-72
2023/07/21 10:47:19;;;;;;;4.20;3.90;;;24.10;60.20;;;;;;4991927;28;20437;-73
2023/07/21 10:49:48;;;;;;;3.90;3.70;;;24.10;60.20;;;;;;4995609;28;20450;-72
2023/07/21 10:52:15;;;;;;;3.90;3.60;;;24.20;60.50;;;;;;4994293;28;21141;-73
2023/07/21 10:54:43;;;;;;;5.07;4.57;;;24.20;60.30;;;;;;5012265;28;21052;-73
2023/07/21 10:57:09;;;;;;;4.30;4.00;;;24.20;59.90;;;;;;5012078;28;20413;-72
2023/07/21 10:59:38;;;;;;;4.10;3.90;;;24.20;59.80;;;;;;4994599;28;20539;-73
2023/07/21 11:02:08;;;;;;;3.77;3.47;;;24.20;59.60;;;;;;4994091;28;20463;-73
2023/07/21 11:04:41;;;;;;;4.17;3.97;;;24.30;59.60;;;;;;5011456;28;20416;-72
2023/07/21 11:07:09;;;;;;;4.00;3.60;;;24.30;59.40;;;;;;5009977;28;20466;-72
2023/07/21 11:09:43;;;;;;;4.03;3.83;;;24.40;59.30;;;;;;5009698;28;20452;-72
2023/07/21 11:12:09;;;;;;;4.20;3.90;;;24.40;59.00;;;;;;4979462;28;20215;-74
2023/07/21 11:14:38;;;;;;;3.70;3.50;;;24.40;58.60;;;;;;4994784;28;20416;-74
2023/07/21 11:17:04;;;;;;;3.70;3.50;;;24.50;58.40;;;;;;5096651;23;20222;-75
2023/07/21 11:19:33;;;;;;;3.83;3.57;;;24.50;58.20;;;;;;5055489;28;21207;-75
2023/07/21 11:22:00;;;;;;;3.70;3.50;;;24.50;58.10;;;;;;5049019;28;20461;-75
2023/07/21 11:24:28;;;;;;;3.87;3.50;;;24.50;58.00;;;;;;5050386;28;20515;-75
2023/07/21 11:26:56;;;;;;;3.83;3.53;;;24.60;58.30;;;;;;5051071;22;20495;-74
2023/07/21 11:29:25;;;;;;;3.33;3.13;;;24.60;58.20;;;;;;5048601;28;20446;-72
2023/07/21 11:31:51;;;;;;;4.13;3.83;;;24.60;58.10;;;;;;5039652;28;20830;-73
2023/07/21 11:34:31;;;;;;;4.00;3.80;;;24.60;57.90;;;;;;5030666;28;20977;-73
2023/07/21 11:37:03;;;;;;;3.10;2.90;;;24.60;57.70;;;;;;4998204;28;20462;-74
2023/07/21 11:39:31;;;;;;;3.97;3.77;;;24.70;57.70;;;;;;5012553;28;20440;-73
2023/07/21 11:41:59;;;;;;;4.00;3.70;;;24.70;57.40;;;;;;5052282;28;20770;-73
2023/07/21 11:44:30;;;;;;;3.37;3.17;;;24.70;57.40;;;;;;5059778;28;20204;-72
2023/07/21 11:46:57;;;;;;;3.70;3.50;;;24.70;57.50;;;;;;5034322;28;20399;-73
2023/07/21 11:49:28;;;;;;;4.00;3.80;;;24.70;57.30;;;;;;5050895;28;20549;-72
2023/07/21 11:51:59;;;;;;;3.80;3.57;;;24.70;57.40;;;;;;5050614;28;21058;-72
2023/07/21 11:54:35;;;;;;;4.30;4.00;;;24.80;57.40;;;;;;5051835;28;20395;-71
2023/07/21 11:57:04;;;;;;;3.57;3.37;;;24.80;57.20;;;;;;5051162;28;20483;-71
2023/07/21 11:59:31;;;;;;;4.20;3.80;;;24.80;57.10;;;;;;5031745;28;20439;-72
2023/07/21 12:01:58;;;;;;;4.53;4.13;;;24.80;57.00;;;;;;4998473;28;20448;-71
2023/07/21 12:04:27;;;;;;;4.47;4.27;;;24.80;56.90;;;;;;5061187;28;20547;-71
2023/07/21 12:06:53;;;;;;;4.50;4.10;;;24.90;56.80;;;;;;5067406;28;20517;-73
2023/07/21 12:09:19;;;;;;;3.73;3.53;;;24.90;56.60;;;;;;5054483;28;20623;-74
2023/07/21 12:11:50;;;;;;;4.40;4.07;;;24.90;57.00;;;;;;5069719;28;20683;-74
2023/07/21 12:14:23;;;;;;;3.90;3.60;;;24.90;56.90;;;;;;5053838;28;20421;-73
2023/07/21 12:16:53;;;;;;;6.03;3.90;;;25.00;56.40;;;;;;5067416;28;20549;-73
2023/07/21 12:19:19;;;;;;;3.93;3.73;;;25.00;55.90;;;;;;5065784;28;20477;-73
2023/07/21 12:21:45;;;;;;;3.67;3.47;;;25.00;55.80;;;;;;5033537;28;20426;-74
2023/07/21 12:24:11;;;;;;;4.20;4.00;;;25.00;55.70;;;;;;5016442;28;20426;-73
2023/07/21 12:26:38;;;;;;;3.90;3.70;;;25.10;55.50;;;;;;5051519;28;20430;-73
2023/07/21 12:29:06;;;;;;;3.90;3.70;;;25.10;55.50;;;;;;5049916;28;20546;-74
2023/07/21 12:31:32;;;;;;;4.17;3.83;;;25.10;55.70;;;;;;5033448;28;20466;-76
2023/07/21 12:34:04;;;;;;;4.00;3.80;;;25.20;56.10;;;;;;5050256;28;20969;-73
2023/07/21 12:36:31;;;;;;;3.90;3.70;;;25.20;56.00;;;;;;5054273;28;20445;-75
2023/07/21 12:38:57;;;;;;;4.10;3.87;;;25.20;55.80;;;;;;5069388;28;20984;-74
2023/07/21 12:41:23;;;;;;;4.30;4.10;;;25.20;55.80;;;;;;5069551;28;20518;-75
2023/07/21 12:43:52;;;;;;;4.77;4.47;;;25.20;56.00;;;;;;5071160;28;20444;-75
2023/07/21 12:46:18;;;;;;;4.20;4.00;;;25.30;56.00;;;;;;5070981;28;21045;-75
2023/07/21 12:48:47;;;;;;;4.37;4.07;;;25.30;56.20;;;;;;5069750;28;20541;-75
2023/07/21 12:51:14;;;;;;;4.20;4.00;;;25.30;56.00;;;;;;5050283;28;20485;-72
2023/07/21 12:53:40;;;;;;;4.13;3.83;;;25.30;56.10;;;;;;5051244;28;20403;-74
2023/07/21 12:56:07;;;;;;;4.77;4.47;;;25.40;55.40;;;;;;5051041;28;20452;-75
2023/07/21 12:58:38;;;;;;;4.13;3.93;;;25.30;55.20;;;;;;5049590;28;20323;-72
2023/07/21 13:01:05;;;;;;;4.13;3.93;;;25.40;55.50;;;;;;5065882;28;20416;-72
2023/07/21 13:03:34;;;;;;;5.33;4.00;;;25.40;55.80;;;;;;5052827;28;20506;-72